Terminal Aerodrome Forecast
Issued by NWS Louisville, KY

Home | Current Version | Previous Version | Text Only | Print | Product List | Glossary On
Versions: 1 2 3 4 5 6 7 8 9 10 11 12 13 14 15 16 17 18 19 20
829
FTUS43 KLMK 181337 AAA
TAFLEX
TAF AMD
KLEX 181337Z 1814/1912 26008KT P6SM FEW008 OVC013
      TEMPO 1814/1816 BKN008
     FM182200 VRB04KT P6SM BKN250=

USA.gov is the U.S. government's official web portal to all federal, state and local government web resources and services.